Time;durP1;ratioP1;P1;durP2;ratioP2;P2;SDS_P1;SDS_P2;PMS_P1;PMS_P2;Temp;Humidity;BMP_temperature;BMP_pressure;BME280_temperature;BME280_humidity;BME280_pressure;Samples;Min_cycle;Max_cycle;Signal;HPM_P1;HPM_P2
2022/09/21 00:00:38;;;;;;;9.32;3.67;;;15.40;99.90;;;;;;5053600;28;20215;-53
2022/09/21 00:03:04;;;;;;;9.70;4.05;;;15.40;99.90;;;;;;5054869;28;20190;-49
2022/09/21 00:05:31;;;;;;;10.35;4.32;;;15.40;99.90;;;;;;5053330;28;20190;-51
2022/09/21 00:08:05;;;;;;;8.82;3.85;;;15.30;99.90;;;;;;5053131;28;20214;-46
2022/09/21 00:10:31;;;;;;;8.95;4.20;;;15.30;99.90;;;;;;5036304;28;20187;-49
2022/09/21 00:12:59;;;;;;;8.43;4.38;;;15.40;99.90;;;;;;5053752;28;20199;-45
2022/09/21 00:15:25;;;;;;;8.60;3.75;;;15.30;99.90;;;;;;5053408;28;20576;-46
2022/09/21 00:17:56;;;;;;;9.43;3.70;;;15.30;99.90;;;;;;5053534;28;20214;-45
2022/09/21 00:20:23;;;;;;;8.57;3.90;;;15.20;99.90;;;;;;5054518;28;20214;-45
2022/09/21 00:22:50;;;;;;;8.77;4.13;;;15.20;99.90;;;;;;5054590;28;20183;-46
2022/09/21 00:25:17;;;;;;;12.63;4.05;;;15.10;99.90;;;;;;5049539;28;20206;-46
2022/09/21 00:27:43;;;;;;;9.02;4.30;;;15.10;99.90;;;;;;5045036;28;20179;-50
2022/09/21 00:30:10;;;;;;;7.22;3.85;;;15.00;99.90;;;;;;5052595;28;20188;-46
2022/09/21 00:32:38;;;;;;;7.93;3.67;;;15.00;99.90;;;;;;5054319;28;20206;-45
2022/09/21 00:35:06;;;;;;;14.88;5.75;;;14.90;99.90;;;;;;5053599;28;20180;-47
2022/09/21 00:37:33;;;;;;;14.70;6.15;;;14.90;99.90;;;;;;5054008;28;20191;-45
2022/09/21 00:39:59;;;;;;;16.15;5.03;;;14.80;99.90;;;;;;5035924;28;20674;-50
2022/09/21 00:42:31;;;;;;;17.10;4.72;;;14.70;99.90;;;;;;5052537;28;20266;-49
2022/09/21 00:44:57;;;;;;;8.60;3.95;;;14.60;99.90;;;;;;5053585;28;20250;-49
2022/09/21 00:47:41;;;;;;;16.42;4.60;;;14.60;99.90;;;;;;5028594;28;20271;-52
2022/09/21 00:50:16;;;;;;;14.93;4.88;;;14.50;99.90;;;;;;5020297;28;20179;-48
2022/09/21 00:52:57;;;;;;;9.18;4.07;;;14.50;99.90;;;;;;5048665;28;20190;-49
2022/09/21 00:55:41;;;;;;;7.40;4.30;;;14.50;99.90;;;;;;5053773;28;20604;-51
2022/09/21 00:58:13;;;;;;;6.55;3.88;;;14.50;99.90;;;;;;5052545;28;20183;-49
2022/09/21 01:00:40;;;;;;;9.07;4.18;;;14.40;99.90;;;;;;5034920;28;20309;-52
2022/09/21 01:03:08;;;;;;;9.60;3.92;;;14.40;99.90;;;;;;5053306;28;20647;-48
2022/09/21 01:05:34;;;;;;;7.22;4.05;;;14.40;99.90;;;;;;5050720;28;20179;-48
2022/09/21 01:08:03;;;;;;;10.80;4.28;;;14.30;99.90;;;;;;5052253;28;20179;-51
2022/09/21 01:10:38;;;;;;;12.63;5.07;;;14.30;99.90;;;;;;5055462;28;20182;-52
2022/09/21 01:13:20;;;;;;;13.93;5.30;;;14.20;99.90;;;;;;5072955;28;20186;-45
2022/09/21 01:16:04;;;;;;;14.40;4.78;;;14.10;99.90;;;;;;5060257;28;20249;-53
2022/09/21 01:18:45;;;;;;;9.73;4.57;;;14.00;99.90;;;;;;5052567;28;20635;-48
2022/09/21 01:21:25;;;;;;;10.70;4.32;;;14.00;99.90;;;;;;5052350;28;20168;-47
2022/09/21 01:24:13;;;;;;;13.57;4.97;;;14.00;99.90;;;;;;5052980;28;20209;-45
2022/09/21 01:27:07;;;;;;;8.93;4.38;;;13.90;99.90;;;;;;5053038;28;20221;-50
2022/09/21 01:29:46;;;;;;;9.85;4.43;;;13.90;99.90;;;;;;5052020;28;20191;-52
2022/09/21 01:32:37;;;;;;;8.80;4.35;;;13.90;99.90;;;;;;5052824;28;20228;-50
2022/09/21 01:35:15;;;;;;;8.43;3.92;;;13.90;99.90;;;;;;5053007;28;20187;-47
2022/09/21 01:37:50;;;;;;;9.45;4.15;;;13.90;99.90;;;;;;5051866;28;20250;-46
2022/09/21 01:40:32;;;;;;;10.15;4.70;;;13.90;99.90;;;;;;5051727;28;20183;-46
2022/09/21 01:43:01;;;;;;;7.32;3.78;;;13.90;99.90;;;;;;5051806;28;20182;-48
2022/09/21 01:45:42;;;;;;;8.35;4.18;;;13.80;99.90;;;;;;5052717;28;20257;-50
2022/09/21 01:48:09;;;;;;;13.50;4.20;;;13.80;99.90;;;;;;5052478;28;20229;-57
2022/09/21 01:50:40;;;;;;;7.93;4.07;;;13.80;99.90;;;;;;5045522;28;20236;-48
2022/09/21 01:53:17;;;;;;;9.02;3.97;;;13.80;99.90;;;;;;5052589;28;20391;-49
2022/09/21 01:55:55;;;;;;;8.40;4.50;;;13.70;99.90;;;;;;5056422;28;20186;-51
2022/09/21 01:58:45;;;;;;;8.70;4.15;;;13.70;99.90;;;;;;5056808;28;20195;-49
2022/09/21 02:01:16;;;;;;;12.25;4.32;;;13.70;99.90;;;;;;5053988;28;20306;-50
2022/09/21 02:03:48;;;;;;;7.55;4.15;;;13.60;99.90;;;;;;5056406;28;20690;-49
2022/09/21 02:06:16;;;;;;;10.35;4.53;;;13.60;99.90;;;;;;5056545;28;20171;-49
2022/09/21 02:08:43;;;;;;;10.38;3.90;;;13.60;99.90;;;;;;5056809;28;20171;-50
2022/09/21 02:11:10;;;;;;;11.02;3.83;;;13.60;99.90;;;;;;5060012;28;20183;-49
2022/09/21 02:13:40;;;;;;;6.93;3.55;;;13.60;99.90;;;;;;5054288;28;20187;-48
2022/09/21 02:16:06;;;;;;;8.03;4.00;;;13.50;99.90;;;;;;5038612;28;20420;-47
2022/09/21 02:18:56;;;;;;;10.75;4.57;;;13.60;99.90;;;;;;5056729;28;20652;-46
2022/09/21 02:21:45;;;;;;;7.65;3.88;;;13.60;99.90;;;;;;5055318;28;20639;-47
2022/09/21 02:24:24;;;;;;;9.00;4.25;;;13.50;99.90;;;;;;5040741;28;20694;-49
2022/09/21 02:27:05;;;;;;;11.88;4.32;;;13.40;99.90;;;;;;5056960;28;20232;-50
2022/09/21 02:29:46;;;;;;;10.45;4.68;;;13.40;99.90;;;;;;5056745;28;21046;-48
2022/09/21 02:32:19;;;;;;;10.93;4.70;;;13.30;99.90;;;;;;5054784;28;20190;-45
2022/09/21 02:34:50;;;;;;;8.95;4.03;;;13.30;99.90;;;;;;5056418;28;20271;-59
2022/09/21 02:37:56;;;;;;;8.90;4.05;;;13.30;99.90;;;;;;5047340;28;20190;-52
2022/09/21 02:40:30;;;;;;;8.80;4.30;;;13.20;99.90;;;;;;4966671;28;20190;-48
2022/09/21 02:43:14;;;;;;;10.00;4.05;;;13.20;99.90;;;;;;5039769;28;20288;-46
2022/09/21 02:45:50;;;;;;;14.93;4.10;;;13.20;99.90;;;;;;5026396;28;20191;-48
2022/09/21 02:48:28;;;;;;;11.38;4.90;;;13.20;99.90;;;;;;5051319;28;20313;-49
2022/09/21 02:50:58;;;;;;;10.13;4.65;;;13.10;99.90;;;;;;5038128;28;20175;-49
2022/09/21 02:53:29;;;;;;;8.73;4.40;;;13.00;99.90;;;;;;5056223;28;20167;-49
2022/09/21 02:55:58;;;;;;;6.40;3.75;;;13.10;99.90;;;;;;5038153;28;20220;-50
2022/09/21 02:58:27;;;;;;;13.32;4.80;;;13.00;99.90;;;;;;5054290;28;20184;-54
2022/09/21 03:00:56;;;;;;;9.05;3.95;;;13.00;99.90;;;;;;5055360;28;20241;-48
2022/09/21 03:03:23;;;;;;;6.10;4.10;;;13.00;99.90;;;;;;5055389;28;20203;-49
2022/09/21 03:05:52;;;;;;;8.80;4.10;;;13.00;99.90;;;;;;5055194;28;20516;-48
2022/09/21 03:08:18;;;;;;;8.93;4.35;;;13.00;99.90;;;;;;5036262;28;20595;-50
2022/09/21 03:10:45;;;;;;;9.13;4.38;;;13.00;99.90;;;;;;5051201;28;20182;-48
2022/09/21 03:13:11;;;;;;;10.00;3.90;;;12.90;99.90;;;;;;5058575;28;20643;-48
2022/09/21 03:15:39;;;;;;;9.50;4.10;;;13.00;99.90;;;;;;5055925;28;20230;-47
2022/09/21 03:18:08;;;;;;;9.10;4.50;;;12.90;99.90;;;;;;5054382;28;20222;-48
2022/09/21 03:20:34;;;;;;;10.07;4.22;;;12.90;99.90;;;;;;5055510;28;20191;-48
2022/09/21 03:23:00;;;;;;;11.23;4.90;;;12.80;99.90;;;;;;5055412;28;20211;-50
2022/09/21 03:25:28;;;;;;;9.48;5.25;;;12.80;99.90;;;;;;5055190;28;20187;-49
2022/09/21 03:27:54;;;;;;;17.92;4.78;;;12.80;99.90;;;;;;5055205;28;20713;-47
2022/09/21 03:30:21;;;;;;;10.75;4.72;;;12.80;99.90;;;;;;5053546;28;20651;-52
2022/09/21 03:32:53;;;;;;;8.85;4.60;;;12.70;99.90;;;;;;5053800;28;20194;-50
2022/09/21 03:35:21;;;;;;;9.88;4.60;;;12.60;99.90;;;;;;5054255;28;20191;-51
2022/09/21 03:37:48;;;;;;;11.30;4.95;;;12.60;99.90;;;;;;5037621;28;20706;-50
2022/09/21 03:40:15;;;;;;;8.65;4.40;;;12.60;99.90;;;;;;5055095;28;20206;-50
2022/09/21 03:42:42;;;;;;;7.97;4.50;;;12.50;99.90;;;;;;5054279;28;20175;-49
2022/09/21 03:45:09;;;;;;;19.10;5.97;;;12.50;99.90;;;;;;5053622;28;20266;-52
2022/09/21 03:47:35;;;;;;;12.88;5.45;;;12.50;99.90;;;;;;5036932;28;20190;-48
2022/09/21 03:50:02;;;;;;;13.60;5.18;;;12.40;99.90;;;;;;5053801;28;20207;-45
2022/09/21 03:52:27;;;;;;;11.18;5.40;;;12.40;99.90;;;;;;5052002;28;20647;-50
2022/09/21 03:54:54;;;;;;;9.50;4.32;;;12.40;99.90;;;;;;5053956;28;20194;-46
2022/09/21 03:57:20;;;;;;;9.55;4.82;;;12.40;99.90;;;;;;5055273;28;20183;-45
2022/09/21 03:59:46;;;;;;;9.95;4.72;;;12.40;99.90;;;;;;5050798;28;20306;-47
2022/09/21 04:02:11;;;;;;;11.18;4.75;;;12.40;99.90;;;;;;5047807;28;20184;-48
2022/09/21 04:04:37;;;;;;;11.88;5.38;;;12.40;99.90;;;;;;5033423;28;20282;-52
2022/09/21 04:07:03;;;;;;;15.80;5.13;;;12.40;99.90;;;;;;5054460;28;20229;-46
2022/09/21 04:09:30;;;;;;;10.40;4.72;;;12.50;99.90;;;;;;5054225;28;20182;-49
2022/09/21 04:11:55;;;;;;;9.18;4.53;;;12.40;99.90;;;;;;5067886;28;20262;-51
2022/09/21 04:14:22;;;;;;;7.93;4.85;;;12.40;99.90;;;;;;5048912;28;20710;-46
2022/09/21 04:16:50;;;;;;;9.63;4.65;;;12.50;99.90;;;;;;5034681;28;20211;-46
2022/09/21 04:19:17;;;;;;;9.68;4.45;;;12.50;99.90;;;;;;5020491;28;20601;-47
2022/09/21 04:21:42;;;;;;;12.68;4.68;;;12.50;99.90;;;;;;5054533;28;20171;-50
2022/09/21 04:24:08;;;;;;;18.67;5.40;;;12.50;99.90;;;;;;5050430;28;20229;-45
2022/09/21 04:26:34;;;;;;;12.57;5.40;;;12.50;99.90;;;;;;5027515;28;20580;-46
2022/09/21 04:29:01;;;;;;;13.40;5.47;;;12.50;99.90;;;;;;5051808;28;20631;-45
2022/09/21 04:31:28;;;;;;;12.55;5.45;;;12.60;99.90;;;;;;5053702;28;20217;-49
2022/09/21 04:33:56;;;;;;;9.20;5.25;;;12.60;99.90;;;;;;5054209;28;20266;-44
2022/09/21 04:36:23;;;;;;;9.15;5.13;;;12.60;99.90;;;;;;5035119;28;20658;-50
2022/09/21 04:38:49;;;;;;;12.05;5.03;;;12.50;99.90;;;;;;5052809;28;20183;-48
2022/09/21 04:41:15;;;;;;;13.15;5.15;;;12.50;99.90;;;;;;5053920;28;20175;-46
2022/09/21 04:43:46;;;;;;;10.05;5.10;;;12.60;99.90;;;;;;5047895;28;20546;-52
2022/09/21 04:46:14;;;;;;;11.82;4.88;;;12.50;99.90;;;;;;5023917;28;20199;-47
2022/09/21 04:48:40;;;;;;;11.68;4.70;;;12.50;99.90;;;;;;5047013;28;20191;-46
2022/09/21 04:51:06;;;;;;;10.27;5.43;;;12.50;99.90;;;;;;5039345;28;20182;-45
2022/09/21 04:53:33;;;;;;;11.80;4.90;;;12.50;99.90;;;;;;5038597;28;20237;-49
2022/09/21 04:55:59;;;;;;;13.20;5.60;;;12.50;99.90;;;;;;5027822;28;20260;-52
2022/09/21 04:58:26;;;;;;;11.77;5.35;;;12.50;99.90;;;;;;5051498;28;20257;-47
2022/09/21 05:00:54;;;;;;;11.75;6.22;;;12.50;99.90;;;;;;5043571;28;20223;-45
2022/09/21 05:03:20;;;;;;;12.45;6.00;;;12.50;99.90;;;;;;5033277;28;20274;-45
2022/09/21 05:05:52;;;;;;;12.07;5.95;;;12.40;99.90;;;;;;5053279;28;20272;-45
2022/09/21 05:10:01;;;;;;;17.73;6.72;;;12.40;99.90;;;;;;5053432;28;20191;-44
2022/09/21 05:11:14;;;;;;;17.20;7.00;;;12.40;99.90;;;;;;5061261;28;20179;-46
2022/09/21 05:13:40;;;;;;;15.18;6.28;;;12.40;99.90;;;;;;5057480;28;20194;-43
2022/09/21 05:16:07;;;;;;;11.65;6.10;;;12.40;99.90;;;;;;5052305;28;20506;-44
2022/09/21 05:18:33;;;;;;;11.15;6.07;;;12.40;99.90;;;;;;5034437;28;20209;-44
2022/09/21 05:21:00;;;;;;;17.75;6.57;;;12.40;99.90;;;;;;5053146;28;20215;-48
2022/09/21 05:23:28;;;;;;;15.35;6.50;;;12.40;99.90;;;;;;5052640;28;20210;-43
2022/09/21 05:25:55;;;;;;;14.82;6.70;;;12.40;99.90;;;;;;5035420;28;20183;-43
2022/09/21 05:28:21;;;;;;;16.30;6.07;;;12.40;99.90;;;;;;5043300;28;20182;-43
2022/09/21 05:31:16;;;;;;;15.85;5.93;;;12.40;99.90;;;;;;5047738;28;20566;-47
2022/09/21 05:33:51;;;;;;;16.10;6.70;;;12.40;99.90;;;;;;5012412;28;20264;-49
2022/09/21 05:36:48;;;;;;;15.38;6.32;;;12.30;99.90;;;;;;5045320;28;20233;-52
2022/09/21 05:39:14;;;;;;;12.13;6.30;;;12.30;99.90;;;;;;5031893;28;20227;-43
2022/09/21 05:41:40;;;;;;;15.38;6.15;;;12.30;99.90;;;;;;5052348;28;20191;-59
2022/09/21 05:44:09;;;;;;;14.40;5.63;;;12.20;99.90;;;;;;5051297;28;20214;-43
2022/09/21 05:47:09;;;;;;;15.52;6.07;;;12.20;99.90;;;;;;5034703;28;20611;-44
2022/09/21 05:50:01;;;;;;;10.57;5.45;;;12.20;99.90;;;;;;5037994;28;20215;-46
2022/09/21 05:52:52;;;;;;;16.73;4.85;;;12.20;99.90;;;;;;5048378;28;20202;-45
2022/09/21 05:55:54;;;;;;;12.10;5.43;;;12.20;99.90;;;;;;5034522;28;20182;-51
2022/09/21 05:58:42;;;;;;;11.00;5.43;;;12.20;99.90;;;;;;5032775;28;20318;-45
2022/09/21 06:01:31;;;;;;;9.68;4.68;;;12.20;99.90;;;;;;5045018;28;20242;-45
2022/09/21 06:03:58;;;;;;;15.73;5.50;;;12.20;99.90;;;;;;5049865;28;20186;-44
2022/09/21 06:06:24;;;;;;;9.50;5.68;;;12.20;99.90;;;;;;5051224;28;20191;-44
2022/09/21 06:08:50;;;;;;;10.48;5.53;;;12.20;99.90;;;;;;5018597;28;20198;-44
2022/09/21 06:11:16;;;;;;;17.15;6.05;;;12.20;99.90;;;;;;5038541;28;20658;-46
2022/09/21 06:13:42;;;;;;;14.15;6.00;;;12.20;99.90;;;;;;5049682;28;20213;-46
2022/09/21 06:16:08;;;;;;;12.52;6.00;;;12.20;99.90;;;;;;5050367;28;20650;-45
2022/09/21 06:18:41;;;;;;;15.25;5.88;;;12.20;99.90;;;;;;5046323;28;20188;-55
2022/09/21 06:21:07;;;;;;;21.83;6.55;;;12.10;99.90;;;;;;5051147;28;20297;-43
2022/09/21 06:23:33;;;;;;;21.90;6.55;;;12.10;99.90;;;;;;5052132;28;20213;-61
2022/09/21 06:25:59;;;;;;;13.07;6.18;;;12.10;99.90;;;;;;5031939;28;20218;-47
2022/09/21 06:28:26;;;;;;;18.50;7.45;;;12.10;99.90;;;;;;5052569;28;20179;-42
2022/09/21 06:30:53;;;;;;;22.55;7.10;;;12.10;99.90;;;;;;5026621;28;20179;-49
2022/09/21 06:33:22;;;;;;;16.23;6.88;;;12.10;99.90;;;;;;5007857;28;20188;-45
2022/09/21 06:35:58;;;;;;;16.02;6.88;;;12.10;99.90;;;;;;5048747;28;20203;-45
2022/09/21 06:38:25;;;;;;;21.33;7.10;;;12.20;99.90;;;;;;5032574;28;20160;-45
2022/09/21 06:40:52;;;;;;;26.02;8.55;;;12.20;99.90;;;;;;5050835;28;20196;-44
2022/09/21 06:43:18;;;;;;;18.75;7.97;;;12.20;99.90;;;;;;5053273;28;20309;-44
2022/09/21 06:45:55;;;;;;;15.70;7.03;;;12.20;99.90;;;;;;5053449;28;20194;-47
2022/09/21 06:48:21;;;;;;;20.15;7.10;;;12.20;99.90;;;;;;5053275;28;20210;-51
2022/09/21 06:50:47;;;;;;;14.50;7.40;;;12.20;99.90;;;;;;5035730;28;20198;-57
2022/09/21 06:53:13;;;;;;;24.63;7.90;;;12.30;99.90;;;;;;5053309;28;20191;-49
2022/09/21 06:55:39;;;;;;;20.05;7.07;;;12.30;99.90;;;;;;5020968;28;20187;-46
2022/09/21 06:58:05;;;;;;;16.08;6.55;;;12.40;99.90;;;;;;5047608;28;20246;-49
2022/09/21 07:00:31;;;;;;;23.17;7.93;;;12.40;99.90;;;;;;5050776;28;20227;-47
2022/09/21 07:02:57;;;;;;;14.30;7.43;;;12.50;99.90;;;;;;5045318;28;20294;-49
2022/09/21 07:05:23;;;;;;;15.50;7.10;;;12.50;99.90;;;;;;5034623;28;20631;-46
2022/09/21 07:07:49;;;;;;;20.05;7.38;;;12.60;99.90;;;;;;5036442;28;20316;-51
2022/09/21 07:10:16;;;;;;;26.02;7.68;;;12.60;99.90;;;;;;5055145;28;20199;-43
2022/09/21 07:12:43;;;;;;;19.98;8.23;;;12.70;99.90;;;;;;5054259;28;20194;-48
2022/09/21 07:15:09;;;;;;;17.70;6.53;;;12.70;99.90;;;;;;5054756;28;20266;-44
2022/09/21 07:17:37;;;;;;;15.90;6.80;;;12.80;99.90;;;;;;5035669;28;20619;-45
2022/09/21 07:20:05;;;;;;;12.32;6.57;;;12.80;99.90;;;;;;5054124;28;20275;-50
2022/09/21 07:22:31;;;;;;;19.92;7.55;;;12.90;99.90;;;;;;5055046;28;20233;-47
2022/09/21 07:24:57;;;;;;;9.38;5.05;;;12.90;99.90;;;;;;5054867;28;20657;-44
2022/09/21 07:27:24;;;;;;;17.27;5.80;;;13.00;99.90;;;;;;5037306;28;20179;-46
2022/09/21 07:29:51;;;;;;;10.18;5.03;;;13.00;99.90;;;;;;5033113;28;20237;-50
2022/09/21 07:32:17;;;;;;;17.98;5.40;;;13.10;99.90;;;;;;5039021;28;20709;-44
2022/09/21 07:34:43;;;;;;;19.70;5.30;;;13.10;99.90;;;;;;5033750;28;20610;-57
2022/09/21 07:37:09;;;;;;;10.98;5.18;;;13.20;99.90;;;;;;5053930;28;20167;-45
2022/09/21 07:39:35;;;;;;;11.43;4.18;;;13.30;99.90;;;;;;5052361;28;20520;-52
2022/09/21 07:42:01;;;;;;;10.13;3.95;;;13.30;99.90;;;;;;5031838;28;20219;-48
2022/09/21 07:44:27;;;;;;;13.55;3.58;;;13.40;99.90;;;;;;5049909;28;20195;-45
2022/09/21 07:46:53;;;;;;;12.15;4.68;;;13.40;99.90;;;;;;5035443;28;20183;-46
2022/09/21 07:49:18;;;;;;;12.20;4.03;;;13.50;99.90;;;;;;5032526;28;20400;-45
2022/09/21 07:51:44;;;;;;;10.35;3.92;;;13.50;99.90;;;;;;5030628;28;20183;-46
2022/09/21 07:54:11;;;;;;;15.13;3.55;;;13.60;99.90;;;;;;5053058;28;20635;-48
2022/09/21 07:56:37;;;;;;;7.88;3.05;;;13.60;99.90;;;;;;5021662;28;20217;-48
2022/09/21 07:59:06;;;;;;;15.65;3.10;;;13.70;99.90;;;;;;5041318;28;20386;-45
2022/09/21 08:01:37;;;;;;;9.23;3.08;;;13.80;99.90;;;;;;5053538;28;20227;-48
2022/09/21 08:04:07;;;;;;;16.67;3.90;;;13.90;99.90;;;;;;5042682;28;20233;-49
2022/09/21 08:06:35;;;;;;;14.73;2.42;;;14.00;99.90;;;;;;5054425;28;20194;-47
2022/09/21 08:09:04;;;;;;;15.07;2.70;;;14.10;99.90;;;;;;5050186;28;20191;-52
2022/09/21 08:11:32;;;;;;;10.80;2.42;;;14.30;99.90;;;;;;5045433;28;20264;-49
2022/09/21 08:14:01;;;;;;;11.18;2.88;;;14.40;99.90;;;;;;5053098;28;20190;-48
2022/09/21 08:16:29;;;;;;;11.52;2.15;;;14.60;99.90;;;;;;5053626;28;20175;-45
2022/09/21 08:18:54;;;;;;;6.70;1.80;;;14.70;99.90;;;;;;5051097;28;20839;-49
2022/09/21 08:21:21;;;;;;;11.18;2.50;;;14.80;99.90;;;;;;5046246;28;20267;-47
2022/09/21 08:23:48;;;;;;;9.30;1.80;;;14.90;99.90;;;;;;5039785;28;20213;-50
2022/09/21 08:26:17;;;;;;;9.82;2.38;;;14.90;99.90;;;;;;5054434;28;20183;-49
2022/09/21 08:28:48;;;;;;;8.65;2.00;;;15.00;99.90;;;;;;5053762;28;20176;-48
2022/09/21 08:31:14;;;;;;;13.35;2.13;;;15.00;99.90;;;;;;5046489;28;20179;-46
2022/09/21 08:33:40;;;;;;;8.45;2.10;;;15.10;99.90;;;;;;5051971;28;20201;-52
2022/09/21 08:36:08;;;;;;;6.25;1.77;;;15.20;99.90;;;;;;5052911;28;20714;-49
2022/09/21 08:38:35;;;;;;;9.13;2.10;;;15.20;99.90;;;;;;5039548;28;20176;-63
2022/09/21 08:41:12;;;;;;;6.97;3.47;;;15.30;99.90;;;;;;5053044;28;20287;-47
2022/09/21 08:43:44;;;;;;;6.15;1.60;;;15.30;99.90;;;;;;5051007;28;20198;-48
2022/09/21 08:46:18;;;;;;;10.50;2.10;;;15.40;99.90;;;;;;5041330;28;20270;-49
2022/09/21 08:49:05;;;;;;;4.35;1.13;;;15.50;99.90;;;;;;5051768;28;20167;-48
2022/09/21 08:51:37;;;;;;;5.15;1.17;;;15.60;99.90;;;;;;5053113;28;20647;-49
2022/09/21 08:54:26;;;;;;;4.55;1.17;;;15.60;99.90;;;;;;5034797;28;20187;-49
2022/09/21 08:56:52;;;;;;;5.47;1.60;;;15.60;99.90;;;;;;5052646;28;20182;-49
2022/09/21 08:59:18;;;;;;;4.97;1.30;;;15.60;99.90;;;;;;5049811;28;20252;-46
2022/09/21 09:02:16;;;;;;;4.88;1.10;;;15.70;99.90;;;;;;5047573;28;20640;-49
2022/09/21 09:05:09;;;;;;;6.18;1.58;;;15.70;99.90;;;;;;5012705;28;20219;-49
2022/09/21 09:08:07;;;;;;;6.57;1.55;;;15.70;99.90;;;;;;5043994;28;20191;-48
2022/09/21 09:10:58;;;;;;;8.43;1.20;;;15.80;99.90;;;;;;4996105;28;20199;-50
2022/09/21 09:13:42;;;;;;;7.75;1.75;;;15.90;99.90;;;;;;5052359;28;20194;-50
2022/09/21 09:16:50;;;;;;;8.10;1.25;;;16.00;99.90;;;;;;5053156;28;20175;-49
2022/09/21 09:19:19;;;;;;;6.57;1.33;;;16.00;99.90;;;;;;5029530;28;20259;-47
2022/09/21 09:21:45;;;;;;;5.32;1.30;;;16.10;99.90;;;;;;5051108;28;20386;-46
2022/09/21 09:24:30;;;;;;;4.68;1.25;;;16.20;99.90;;;;;;5037580;28;20667;-50
2022/09/21 09:27:23;;;;;;;6.05;1.33;;;16.20;99.90;;;;;;5053367;28;20197;-49
2022/09/21 09:29:58;;;;;;;6.97;1.25;;;16.30;99.60;;;;;;5051950;28;20171;-49
2022/09/21 09:32:41;;;;;;;4.13;1.10;;;16.40;99.30;;;;;;5052342;28;20183;-51
2022/09/21 09:35:21;;;;;;;5.20;1.05;;;16.40;98.80;;;;;;5029920;28;20191;-51
2022/09/21 09:37:49;;;;;;;6.38;1.25;;;16.40;98.60;;;;;;5015694;28;20172;-46
2022/09/21 09:40:27;;;;;;;8.93;1.63;;;16.40;98.40;;;;;;5044233;28;20236;-51
2022/09/21 09:43:06;;;;;;;8.02;2.15;;;16.50;98.40;;;;;;5046904;28;20238;-45
2022/09/21 09:45:49;;;;;;;7.65;2.00;;;16.60;98.30;;;;;;5048410;28;20646;-51
2022/09/21 09:49:01;;;;;;;6.57;1.55;;;16.70;98.20;;;;;;5050993;28;20187;-51
2022/09/21 09:51:27;;;;;;;6.68;1.30;;;16.80;98.00;;;;;;4998075;28;20199;-45
2022/09/21 09:53:58;;;;;;;5.72;1.40;;;16.90;97.80;;;;;;5047670;28;20607;-55
2022/09/21 09:56:23;;;;;;;10.15;1.45;;;17.00;97.50;;;;;;5020061;28;20197;-46
2022/09/21 09:58:56;;;;;;;12.20;1.42;;;17.10;97.30;;;;;;5034175;28;20175;-50
2022/09/21 10:01:56;;;;;;;6.70;1.23;;;17.20;96.90;;;;;;5053454;28;20222;-45
2022/09/21 10:04:22;;;;;;;6.82;1.10;;;17.30;96.60;;;;;;5048618;28;20738;-50
2022/09/21 10:06:48;;;;;;;8.65;1.25;;;17.40;96.50;;;;;;5050843;28;20270;-50
2022/09/21 10:09:31;;;;;;;4.32;1.10;;;17.50;96.20;;;;;;5049499;28;20186;-48
2022/09/21 10:12:00;;;;;;;5.55;1.15;;;17.60;95.80;;;;;;5056287;28;20294;-49
2022/09/21 10:14:31;;;;;;;1.45;0.82;;;17.70;95.60;;;;;;5049306;28;20201;-50
2022/09/21 10:17:06;;;;;;;7.45;0.90;;;17.80;95.40;;;;;;5056516;28;20167;-51
2022/09/21 10:19:32;;;;;;;6.32;1.25;;;17.90;95.20;;;;;;5047875;28;20183;-50
2022/09/21 10:22:00;;;;;;;6.72;1.35;;;18.00;95.20;;;;;;5039909;28;20535;-48
2022/09/21 10:24:34;;;;;;;9.30;1.40;;;18.10;94.90;;;;;;5055354;28;20203;-49
2022/09/21 10:27:10;;;;;;;6.03;1.02;;;18.20;94.30;;;;;;5056495;28;20175;-52
2022/09/21 10:29:47;;;;;;;4.97;0.93;;;18.30;94.00;;;;;;5055442;28;20187;-50
2022/09/21 10:32:13;;;;;;;4.85;0.88;;;18.40;93.80;;;;;;5055331;28;20394;-52
2022/09/21 10:34:43;;;;;;;5.70;0.88;;;18.50;93.40;;;;;;5033225;28;20536;-47
2022/09/21 10:37:33;;;;;;;2.90;1.05;;;18.60;92.90;;;;;;5036227;28;20168;-50
2022/09/21 10:39:59;;;;;;;5.82;1.30;;;18.60;92.70;;;;;;5047725;28;20191;-52
2022/09/21 10:42:30;;;;;;;5.07;1.20;;;18.70;92.20;;;;;;5055576;28;20220;-60
2022/09/21 10:45:15;;;;;;;2.78;0.75;;;18.80;91.40;;;;;;5052698;28;20238;-51
2022/09/21 10:47:51;;;;;;;6.97;1.70;;;18.80;91.00;;;;;;5053118;28;20266;-51
2022/09/21 10:50:33;;;;;;;6.07;1.50;;;18.80;90.90;;;;;;5052990;28;20202;-48
2022/09/21 10:53:01;;;;;;;5.32;1.50;;;18.80;90.70;;;;;;5052857;28;20723;-51
2022/09/21 10:55:29;;;;;;;6.45;1.40;;;19.00;90.70;;;;;;5052966;28;20184;-48
2022/09/21 10:57:56;;;;;;;6.75;1.00;;;19.10;90.60;;;;;;5055131;28;20179;-52
2022/09/21 11:00:30;;;;;;;5.07;1.20;;;19.30;90.10;;;;;;5037097;28;20235;-48
2022/09/21 11:02:59;;;;;;;5.30;1.20;;;19.50;88.80;;;;;;5053467;28;20190;-48
2022/09/21 11:05:37;;;;;;;6.93;0.95;;;19.50;87.60;;;;;;5047804;28;20640;-47
2022/09/21 11:08:13;;;;;;;5.30;1.05;;;19.60;86.20;;;;;;5052516;28;20221;-49
2022/09/21 11:10:57;;;;;;;5.45;1.08;;;19.60;85.70;;;;;;5058269;28;20224;-50
2022/09/21 11:13:34;;;;;;;3.95;0.80;;;19.60;85.00;;;;;;5073550;28;20171;-55
2022/09/21 11:16:20;;;;;;;6.43;1.02;;;19.50;84.90;;;;;;5055201;28;20254;-47
2022/09/21 11:19:20;;;;;;;6.43;1.25;;;19.50;84.30;;;;;;5052567;28;20183;-48
2022/09/21 11:21:54;;;;;;;5.38;1.35;;;19.50;83.90;;;;;;5055949;28;20179;-50
2022/09/21 11:24:36;;;;;;;3.10;0.90;;;19.50;83.90;;;;;;5053392;28;20272;-50
2022/09/21 11:27:23;;;;;;;5.93;1.00;;;19.50;84.00;;;;;;5055605;28;20171;-47
2022/09/21 11:30:07;;;;;;;5.85;1.10;;;19.70;83.50;;;;;;5028855;28;20179;-48
2022/09/21 11:33:19;;;;;;;8.52;1.75;;;19.80;83.00;;;;;;5054403;28;20194;-47
2022/09/21 11:35:50;;;;;;;6.50;1.10;;;20.00;82.30;;;;;;5023032;28;20213;-59
2022/09/21 11:38:44;;;;;;;2.03;0.90;;;20.20;81.50;;;;;;5054994;28;20294;-51
2022/09/21 11:41:55;;;;;;;8.75;1.35;;;20.30;80.60;;;;;;5048517;28;20180;-49
2022/09/21 11:45:06;;;;;;;6.80;1.15;;;20.50;79.80;;;;;;5028716;28;20211;-49
2022/09/21 11:47:43;;;;;;;5.05;1.13;;;20.50;78.60;;;;;;5024566;28;20210;-52
2022/09/21 11:50:52;;;;;;;5.53;1.23;;;20.50;78.40;;;;;;5053835;28;20162;-49
2022/09/21 11:53:28;;;;;;;4.85;0.95;;;20.30;77.40;;;;;;5053868;28;20160;-45
2022/09/21 11:56:13;;;;;;;7.82;1.20;;;20.30;76.70;;;;;;5055162;28;20171;-45
2022/09/21 11:59:05;;;;;;;3.78;1.00;;;20.30;76.00;;;;;;5054630;28;20178;-51
2022/09/21 12:01:34;;;;;;;7.47;1.58;;;20.30;75.20;;;;;;5052006;28;20223;-46
2022/09/21 12:04:09;;;;;;;5.47;1.15;;;20.30;74.90;;;;;;5051380;28;20214;-45
2022/09/21 12:07:19;;;;;;;7.35;1.20;;;20.20;74.40;;;;;;5054858;28;20211;-48
2022/09/21 12:09:57;;;;;;;3.35;1.25;;;20.20;73.90;;;;;;5053594;28;20301;-45
2022/09/21 12:12:41;;;;;;;2.50;1.00;;;20.20;71.90;;;;;;5070933;28;20197;-45
2022/09/21 12:15:18;;;;;;;7.35;1.15;;;20.10;72.40;;;;;;5066155;28;20179;-50
2022/09/21 12:18:21;;;;;;;3.15;0.88;;;20.00;71.80;;;;;;5037310;28;20648;-47
2022/09/21 12:20:57;;;;;;;3.08;0.90;;;19.90;72.40;;;;;;5033702;28;20528;-52
2022/09/21 12:23:46;;;;;;;5.13;1.00;;;19.90;73.40;;;;;;5044160;28;20199;-50
2022/09/21 12:26:17;;;;;;;5.72;0.93;;;19.90;73.50;;;;;;5005287;28;20237;-51
2022/09/21 12:28:50;;;;;;;6.65;1.20;;;20.10;73.10;;;;;;5034307;28;20750;-49
2022/09/21 12:31:40;;;;;;;3.85;0.93;;;20.20;73.00;;;;;;5044624;28;20188;-45
2022/09/21 12:34:15;;;;;;;5.00;1.30;;;20.30;74.00;;;;;;5043547;28;20268;-49
2022/09/21 12:36:48;;;;;;;6.88;1.35;;;20.40;73.90;;;;;;5052788;28;20209;-49
2022/09/21 12:39:19;;;;;;;6.18;1.08;;;20.50;73.00;;;;;;5052540;28;20189;-44
2022/09/21 12:42:08;;;;;;;4.93;1.20;;;20.50;71.30;;;;;;5036228;28;20182;-47
2022/09/21 12:44:50;;;;;;;1.92;0.95;;;20.50;70.50;;;;;;5053585;28;20194;-50
2022/09/21 12:47:23;;;;;;;5.80;1.10;;;20.50;69.80;;;;;;5046274;28;20192;-49
2022/09/21 12:49:54;;;;;;;3.42;1.10;;;20.40;69.70;;;;;;5033515;28;20190;-49
2022/09/21 12:52:26;;;;;;;3.97;1.00;;;20.40;69.80;;;;;;5032969;28;20195;-47
2022/09/21 12:55:17;;;;;;;5.72;1.52;;;20.20;70.00;;;;;;5016128;28;20188;-47
2022/09/21 12:58:03;;;;;;;6.03;1.30;;;20.20;70.30;;;;;;5037039;28;20225;-47
2022/09/21 13:00:40;;;;;;;6.03;1.10;;;20.10;70.60;;;;;;5051861;28;20647;-48
2022/09/21 13:03:43;;;;;;;5.25;1.25;;;20.00;70.40;;;;;;5053281;28;20233;-57
2022/09/21 13:06:11;;;;;;;5.45;1.15;;;20.00;70.20;;;;;;5042297;28;20178;-49
2022/09/21 13:08:42;;;;;;;3.75;0.80;;;20.10;70.30;;;;;;5040446;28;20179;-47
2022/09/21 13:11:09;;;;;;;5.15;1.30;;;20.00;70.80;;;;;;5061125;28;20608;-48
2022/09/21 13:13:50;;;;;;;5.45;1.75;;;20.00;71.30;;;;;;5026211;28;20189;-45
2022/09/21 13:16:37;;;;;;;8.98;1.83;;;19.90;71.80;;;;;;5035588;28;20282;-45